sensor_id;sensor_type;location;lat;lon;timestamp;temperature;humidity
47482;DHT22;33219;47.410;9.730;2023-05-28T00:01:48;15.20;99.90
47482;DHT22;33219;47.410;9.730;2023-05-28T00:04:16;15.10;99.90
47482;DHT22;33219;47.410;9.730;2023-05-28T00:06:44;15.20;99.90
47482;DHT22;33219;47.410;9.730;2023-05-28T00:09:11;15.10;99.90
47482;DHT22;33219;47.410;9.730;2023-05-28T00:11:39;15.10;99.90
47482;DHT22;33219;47.410;9.730;2023-05-28T00:14:06;15.10;99.90
47482;DHT22;33219;47.410;9.730;2023-05-28T00:16:34;15.10;99.90
47482;DHT22;33219;47.410;9.730;2023-05-28T00:19:02;15.10;99.90
47482;DHT22;33219;47.410;9.730;2023-05-28T00:21:30;15.00;99.90
47482;DHT22;33219;47.410;9.730;2023-05-28T00:24:02;15.00;99.90
47482;DHT22;33219;47.410;9.730;2023-05-28T00:26:30;15.00;99.90
47482;DHT22;33219;47.410;9.730;2023-05-28T00:28:58;15.00;99.90
47482;DHT22;33219;47.410;9.730;2023-05-28T00:31:25;15.00;99.90
47482;DHT22;33219;47.410;9.730;2023-05-28T00:33:53;15.00;99.90
47482;DHT22;33219;47.410;9.730;2023-05-28T00:36:20;15.00;99.90
47482;DHT22;33219;47.410;9.730;2023-05-28T00:38:48;15.00;99.90
47482;DHT22;33219;47.410;9.730;2023-05-28T00:41:23;15.00;99.90
47482;DHT22;33219;47.410;9.730;2023-05-28T00:43:52;15.00;99.90
47482;DHT22;33219;47.410;9.730;2023-05-28T00:46:21;14.90;99.90
47482;DHT22;33219;47.410;9.730;2023-05-28T00:48:49;14.90;99.90
47482;DHT22;33219;47.410;9.730;2023-05-28T00:51:18;14.80;99.90
47482;DHT22;33219;47.410;9.730;2023-05-28T00:53:46;14.80;99.90
47482;DHT22;33219;47.410;9.730;2023-05-28T00:56:13;14.80;99.90
47482;DHT22;33219;47.410;9.730;2023-05-28T00:58:42;14.70;99.90
47482;DHT22;33219;47.410;9.730;2023-05-28T01:01:10;14.70;99.90
47482;DHT22;33219;47.410;9.730;2023-05-28T01:03:38;14.60;99.90
47482;DHT22;33219;47.410;9.730;2023-05-28T01:06:07;14.60;99.90
47482;DHT22;33219;47.410;9.730;2023-05-28T01:08:37;14.60;99.90
47482;DHT22;33219;47.410;9.730;2023-05-28T01:11:06;14.50;99.90
47482;DHT22;33219;47.410;9.730;2023-05-28T01:13:35;14.50;99.90
47482;DHT22;33219;47.410;9.730;2023-05-28T01:16:03;14.50;99.90
47482;DHT22;33219;47.410;9.730;2023-05-28T01:18:31;14.40;99.90
47482;DHT22;33219;47.410;9.730;2023-05-28T01:21:02;14.40;99.90
47482;DHT22;33219;47.410;9.730;2023-05-28T01:24:05;14.40;99.90
47482;DHT22;33219;47.410;9.730;2023-05-28T01:26:06;14.40;99.90
47482;DHT22;33219;47.410;9.730;2023-05-28T01:28:35;14.40;99.90
47482;DHT22;33219;47.410;9.730;2023-05-28T01:31:02;14.40;99.90
47482;DHT22;33219;47.410;9.730;2023-05-28T01:33:30;14.30;99.90
47482;DHT22;33219;47.410;9.730;2023-05-28T01:36:00;14.30;99.90
47482;DHT22;33219;47.410;9.730;2023-05-28T01:38:29;14.30;99.90
47482;DHT22;33219;47.410;9.730;2023-05-28T01:40:57;14.30;99.90
47482;DHT22;33219;47.410;9.730;2023-05-28T01:43:25;14.30;99.90
47482;DHT22;33219;47.410;9.730;2023-05-28T01:45:53;14.30;99.90
47482;DHT22;33219;47.410;9.730;2023-05-28T01:48:21;14.30;99.90
47482;DHT22;33219;47.410;9.730;2023-05-28T01:50:49;14.30;99.90
47482;DHT22;33219;47.410;9.730;2023-05-28T01:53:19;14.30;99.90
47482;DHT22;33219;47.410;9.730;2023-05-28T01:55:46;14.30;99.90
47482;DHT22;33219;47.410;9.730;2023-05-28T01:58:14;14.30;99.90
47482;DHT22;33219;47.410;9.730;2023-05-28T02:00:47;14.30;99.90
47482;DHT22;33219;47.410;9.730;2023-05-28T02:03:15;14.30;99.90
47482;DHT22;33219;47.410;9.730;2023-05-28T02:05:42;14.30;99.90
47482;DHT22;33219;47.410;9.730;2023-05-28T02:08:10;14.30;99.90
47482;DHT22;33219;47.410;9.730;2023-05-28T02:10:37;14.20;99.90
47482;DHT22;33219;47.410;9.730;2023-05-28T02:13:05;14.20;99.90
47482;DHT22;33219;47.410;9.730;2023-05-28T02:15:32;14.10;99.90
47482;DHT22;33219;47.410;9.730;2023-05-28T02:18:00;14.10;99.90
47482;DHT22;33219;47.410;9.730;2023-05-28T02:20:29;14.00;99.90
47482;DHT22;33219;47.410;9.730;2023-05-28T02:22:56;14.00;99.90
47482;DHT22;33219;47.410;9.730;2023-05-28T02:25:24;13.90;99.90
47482;DHT22;33219;47.410;9.730;2023-05-28T02:27:51;13.80;99.90
47482;DHT22;33219;47.410;9.730;2023-05-28T02:30:19;13.90;99.90
47482;DHT22;33219;47.410;9.730;2023-05-28T02:32:47;13.80;99.90
47482;DHT22;33219;47.410;9.730;2023-05-28T02:35:15;13.80;99.90
47482;DHT22;33219;47.410;9.730;2023-05-28T02:37:43;13.70;99.90
47482;DHT22;33219;47.410;9.730;2023-05-28T02:40:10;13.70;99.90
47482;DHT22;33219;47.410;9.730;2023-05-28T02:42:39;13.70;99.90
47482;DHT22;33219;47.410;9.730;2023-05-28T02:45:07;13.70;99.90
47482;DHT22;33219;47.410;9.730;2023-05-28T02:47:34;13.70;99.90
47482;DHT22;33219;47.410;9.730;2023-05-28T02:50:02;13.70;99.90
47482;DHT22;33219;47.410;9.730;2023-05-28T02:52:29;13.60;99.90
47482;DHT22;33219;47.410;9.730;2023-05-28T02:54:57;13.60;99.90
47482;DHT22;33219;47.410;9.730;2023-05-28T02:57:25;13.50;99.90
47482;DHT22;33219;47.410;9.730;2023-05-28T02:59:53;13.40;99.90
47482;DHT22;33219;47.410;9.730;2023-05-28T03:02:20;13.40;99.90
47482;DHT22;33219;47.410;9.730;2023-05-28T03:04:48;13.40;99.90
47482;DHT22;33219;47.410;9.730;2023-05-28T03:07:15;13.30;99.90
47482;DHT22;33219;47.410;9.730;2023-05-28T03:09:43;13.30;99.90
47482;DHT22;33219;47.410;9.730;2023-05-28T03:12:11;13.20;99.90
47482;DHT22;33219;47.410;9.730;2023-05-28T03:14:38;13.20;99.90
47482;DHT22;33219;47.410;9.730;2023-05-28T03:17:06;13.20;99.90
47482;DHT22;33219;47.410;9.730;2023-05-28T03:19:34;13.10;99.90
47482;DHT22;33219;47.410;9.730;2023-05-28T03:22:03;13.10;99.90
47482;DHT22;33219;47.410;9.730;2023-05-28T03:24:31;13.00;99.90
47482;DHT22;33219;47.410;9.730;2023-05-28T03:27:00;13.00;99.90
47482;DHT22;33219;47.410;9.730;2023-05-28T03:29:28;13.00;99.90
47482;DHT22;33219;47.410;9.730;2023-05-28T03:31:55;13.00;99.90
47482;DHT22;33219;47.410;9.730;2023-05-28T03:34:23;13.00;99.90
47482;DHT22;33219;47.410;9.730;2023-05-28T03:36:51;13.00;99.90
47482;DHT22;33219;47.410;9.730;2023-05-28T03:39:18;13.00;99.90
47482;DHT22;33219;47.410;9.730;2023-05-28T03:41:46;13.00;99.90
47482;DHT22;33219;47.410;9.730;2023-05-28T03:44:15;13.00;99.90
47482;DHT22;33219;47.410;9.730;2023-05-28T03:46:46;13.00;99.90
47482;DHT22;33219;47.410;9.730;2023-05-28T03:49:13;13.00;99.90
47482;DHT22;33219;47.410;9.730;2023-05-28T03:51:41;13.00;99.90
47482;DHT22;33219;47.410;9.730;2023-05-28T03:54:08;13.00;99.90
47482;DHT22;33219;47.410;9.730;2023-05-28T03:56:36;13.00;99.90
47482;DHT22;33219;47.410;9.730;2023-05-28T03:59:03;13.00;99.90
47482;DHT22;33219;47.410;9.730;2023-05-28T04:01:31;13.00;99.90
47482;DHT22;33219;47.410;9.730;2023-05-28T04:04:00;13.00;99.90
47482;DHT22;33219;47.410;9.730;2023-05-28T04:06:28;13.10;99.90
47482;DHT22;33219;47.410;9.730;2023-05-28T04:08:58;13.10;99.90
47482;DHT22;33219;47.410;9.730;2023-05-28T04:11:26;13.20;99.90
47482;DHT22;33219;47.410;9.730;2023-05-28T04:13:55;13.20;99.90
47482;DHT22;33219;47.410;9.730;2023-05-28T04:16:24;13.30;99.90
47482;DHT22;33219;47.410;9.730;2023-05-28T04:18:52;13.40;99.90
47482;DHT22;33219;47.410;9.730;2023-05-28T04:21:21;13.40;99.90
47482;DHT22;33219;47.410;9.730;2023-05-28T04:23:49;13.50;99.90
47482;DHT22;33219;47.410;9.730;2023-05-28T04:26:17;13.50;99.90
47482;DHT22;33219;47.410;9.730;2023-05-28T04:28:47;13.70;99.90
47482;DHT22;33219;47.410;9.730;2023-05-28T04:31:14;14.20;99.90
47482;DHT22;33219;47.410;9.730;2023-05-28T04:33:42;14.70;99.90
47482;DHT22;33219;47.410;9.730;2023-05-28T04:36:11;15.40;99.90
47482;DHT22;33219;47.410;9.730;2023-05-28T04:38:40;15.90;99.90
47482;DHT22;33219;47.410;9.730;2023-05-28T04:41:08;16.50;99.90
47482;DHT22;33219;47.410;9.730;2023-05-28T04:43:37;16.80;99.90
47482;DHT22;33219;47.410;9.730;2023-05-28T04:46:05;16.50;99.90
47482;DHT22;33219;47.410;9.730;2023-05-28T04:48:34;16.40;99.90
47482;DHT22;33219;47.410;9.730;2023-05-28T04:51:04;16.10;99.90
47482;DHT22;33219;47.410;9.730;2023-05-28T04:53:33;15.90;99.90
47482;DHT22;33219;47.410;9.730;2023-05-28T04:56:01;15.70;99.90
47482;DHT22;33219;47.410;9.730;2023-05-28T04:58:30;15.60;99.90
47482;DHT22;33219;47.410;9.730;2023-05-28T05:00:57;15.70;99.90
47482;DHT22;33219;47.410;9.730;2023-05-28T05:03:25;15.80;99.90
47482;DHT22;33219;47.410;9.730;2023-05-28T05:05:56;16.20;99.90
47482;DHT22;33219;47.410;9.730;2023-05-28T05:08:24;16.60;99.90
47482;DHT22;33219;47.410;9.730;2023-05-28T05:10:52;17.20;99.90
47482;DHT22;33219;47.410;9.730;2023-05-28T05:13:19;17.90;99.90
47482;DHT22;33219;47.410;9.730;2023-05-28T05:15:48;18.40;99.90
47482;DHT22;33219;47.410;9.730;2023-05-28T05:18:15;19.20;99.90
47482;DHT22;33219;47.410;9.730;2023-05-28T05:20:43;19.90;99.90
47482;DHT22;33219;47.410;9.730;2023-05-28T05:23:10;20.20;99.30
47482;DHT22;33219;47.410;9.730;2023-05-28T05:25:38;20.10;97.60
47482;DHT22;33219;47.410;9.730;2023-05-28T05:28:06;19.90;98.90
47482;DHT22;33219;47.410;9.730;2023-05-28T05:30:33;19.70;99.20
47482;DHT22;33219;47.410;9.730;2023-05-28T05:33:02;20.00;98.20
47482;DHT22;33219;47.410;9.730;2023-05-28T05:35:29;20.40;98.20
47482;DHT22;33219;47.410;9.730;2023-05-28T05:37:57;21.10;97.20
47482;DHT22;33219;47.410;9.730;2023-05-28T05:40:25;21.70;95.50
47482;DHT22;33219;47.410;9.730;2023-05-28T05:42:52;22.00;95.20
47482;DHT22;33219;47.410;9.730;2023-05-28T05:45:20;22.20;94.90
47482;DHT22;33219;47.410;9.730;2023-05-28T05:47:47;22.30;94.60
47482;DHT22;33219;47.410;9.730;2023-05-28T05:50:15;22.80;93.40
47482;DHT22;33219;47.410;9.730;2023-05-28T05:52:43;23.60;91.80
47482;DHT22;33219;47.410;9.730;2023-05-28T05:55:10;24.00;91.00
47482;DHT22;33219;47.410;9.730;2023-05-28T05:57:38;24.30;90.40
47482;DHT22;33219;47.410;9.730;2023-05-28T06:00:07;24.60;89.10
47482;DHT22;33219;47.410;9.730;2023-05-28T06:02:36;24.60;88.40
47482;DHT22;33219;47.410;9.730;2023-05-28T06:05:04;25.10;86.10
47482;DHT22;33219;47.410;9.730;2023-05-28T06:07:32;25.50;84.60
47482;DHT22;33219;47.410;9.730;2023-05-28T06:10:00;25.80;82.80
47482;DHT22;33219;47.410;9.730;2023-05-28T06:12:28;25.70;81.30
47482;DHT22;33219;47.410;9.730;2023-05-28T06:14:55;25.30;81.70
47482;DHT22;33219;47.410;9.730;2023-05-28T06:17:23;25.50;81.40
47482;DHT22;33219;47.410;9.730;2023-05-28T06:19:50;25.60;80.40
47482;DHT22;33219;47.410;9.730;2023-05-28T06:22:18;25.30;80.30
47482;DHT22;33219;47.410;9.730;2023-05-28T06:24:47;25.10;80.10
47482;DHT22;33219;47.410;9.730;2023-05-28T06:27:16;25.80;78.30
47482;DHT22;33219;47.410;9.730;2023-05-28T06:29:44;24.90;79.90
47482;DHT22;33219;47.410;9.730;2023-05-28T06:32:12;24.50;80.80
47482;DHT22;33219;47.410;9.730;2023-05-28T06:34:40;24.50;81.60
47482;DHT22;33219;47.410;9.730;2023-05-28T06:37:07;25.10;79.60
47482;DHT22;33219;47.410;9.730;2023-05-28T06:39:35;25.70;78.90
47482;DHT22;33219;47.410;9.730;2023-05-28T06:42:03;26.70;76.10
47482;DHT22;33219;47.410;9.730;2023-05-28T06:44:32;26.30;77.30
47482;DHT22;33219;47.410;9.730;2023-05-28T06:47:00;26.10;77.90
47482;DHT22;33219;47.410;9.730;2023-05-28T06:49:28;27.00;75.50
47482;DHT22;33219;47.410;9.730;2023-05-28T06:51:55;27.20;75.10
47482;DHT22;33219;47.410;9.730;2023-05-28T06:54:23;26.80;75.40
47482;DHT22;33219;47.410;9.730;2023-05-28T06:56:50;26.30;75.70
47482;DHT22;33219;47.410;9.730;2023-05-28T06:59:18;27.00;74.10
47482;DHT22;33219;47.410;9.730;2023-05-28T07:01:46;27.30;72.90
47482;DHT22;33219;47.410;9.730;2023-05-28T07:04:14;27.30;72.70
47482;DHT22;33219;47.410;9.730;2023-05-28T07:06:41;27.10;72.90
47482;DHT22;33219;47.410;9.730;2023-05-28T07:09:09;26.60;75.40
47482;DHT22;33219;47.410;9.730;2023-05-28T07:11:37;26.30;73.50
47482;DHT22;33219;47.410;9.730;2023-05-28T07:14:06;27.10;72.50
47482;DHT22;33219;47.410;9.730;2023-05-28T07:16:33;27.50;72.50
47482;DHT22;33219;47.410;9.730;2023-05-28T07:19:01;27.30;73.10
47482;DHT22;33219;47.410;9.730;2023-05-28T07:21:28;27.00;74.00
47482;DHT22;33219;47.410;9.730;2023-05-28T07:23:58;27.60;72.70
47482;DHT22;33219;47.410;9.730;2023-05-28T07:26:25;27.50;72.40
47482;DHT22;33219;47.410;9.730;2023-05-28T07:28:53;26.80;73.80
47482;DHT22;33219;47.410;9.730;2023-05-28T07:31:21;26.70;74.20
47482;DHT22;33219;47.410;9.730;2023-05-28T07:33:49;26.70;73.30
47482;DHT22;33219;47.410;9.730;2023-05-28T07:36:17;27.50;72.20
47482;DHT22;33219;47.410;9.730;2023-05-28T07:38:45;27.50;73.40
47482;DHT22;33219;47.410;9.730;2023-05-28T07:41:12;27.80;71.00
47482;DHT22;33219;47.410;9.730;2023-05-28T07:43:40;27.90;70.60
47482;DHT22;33219;47.410;9.730;2023-05-28T07:46:07;27.80;71.40
47482;DHT22;33219;47.410;9.730;2023-05-28T07:48:35;28.10;70.30
47482;DHT22;33219;47.410;9.730;2023-05-28T07:51:02;27.80;70.60
47482;DHT22;33219;47.410;9.730;2023-05-28T07:53:30;27.60;72.20
47482;DHT22;33219;47.410;9.730;2023-05-28T07:55:58;27.60;71.10
47482;DHT22;33219;47.410;9.730;2023-05-28T07:58:26;26.30;72.60
47482;DHT22;33219;47.410;9.730;2023-05-28T08:00:54;26.00;75.00
47482;DHT22;33219;47.410;9.730;2023-05-28T08:03:22;25.80;74.60
47482;DHT22;33219;47.410;9.730;2023-05-28T08:05:51;26.30;74.90
47482;DHT22;33219;47.410;9.730;2023-05-28T08:08:19;27.40;74.50
47482;DHT22;33219;47.410;9.730;2023-05-28T08:10:46;27.80;71.70
47482;DHT22;33219;47.410;9.730;2023-05-28T08:13:14;27.90;73.00
47482;DHT22;33219;47.410;9.730;2023-05-28T08:15:42;27.20;72.90
47482;DHT22;33219;47.410;9.730;2023-05-28T08:18:09;27.00;73.10
47482;DHT22;33219;47.410;9.730;2023-05-28T08:20:37;27.70;70.40
47482;DHT22;33219;47.410;9.730;2023-05-28T08:23:05;28.00;71.40
47482;DHT22;33219;47.410;9.730;2023-05-28T08:25:33;27.60;70.00
47482;DHT22;33219;47.410;9.730;2023-05-28T08:28:01;27.20;72.00
47482;DHT22;33219;47.410;9.730;2023-05-28T08:30:29;27.40;70.90
47482;DHT22;33219;47.410;9.730;2023-05-28T08:32:57;27.50;71.30
47482;DHT22;33219;47.410;9.730;2023-05-28T08:35:26;27.70;70.70
47482;DHT22;33219;47.410;9.730;2023-05-28T08:37:53;27.50;72.00
47482;DHT22;33219;47.410;9.730;2023-05-28T08:40:21;28.10;69.40
47482;DHT22;33219;47.410;9.730;2023-05-28T08:42:49;28.10;69.30
47482;DHT22;33219;47.410;9.730;2023-05-28T08:45:17;27.80;70.10
47482;DHT22;33219;47.410;9.730;2023-05-28T08:47:45;27.40;70.30
47482;DHT22;33219;47.410;9.730;2023-05-28T08:50:13;26.60;71.80
47482;DHT22;33219;47.410;9.730;2023-05-28T08:52:44;26.40;71.80
47482;DHT22;33219;47.410;9.730;2023-05-28T08:55:12;26.20;71.30
47482;DHT22;33219;47.410;9.730;2023-05-28T08:57:40;26.70;71.40
47482;DHT22;33219;47.410;9.730;2023-05-28T09:00:08;27.10;68.90
47482;DHT22;33219;47.410;9.730;2023-05-28T09:02:38;27.10;69.70
47482;DHT22;33219;47.410;9.730;2023-05-28T09:05:06;27.20;69.50
47482;DHT22;33219;47.410;9.730;2023-05-28T09:07:34;27.60;69.10
47482;DHT22;33219;47.410;9.730;2023-05-28T09:10:02;27.10;70.70
47482;DHT22;33219;47.410;9.730;2023-05-28T09:12:30;26.90;71.40
47482;DHT22;33219;47.410;9.730;2023-05-28T09:14:58;27.30;70.10
47482;DHT22;33219;47.410;9.730;2023-05-28T09:17:35;26.90;69.90
47482;DHT22;33219;47.410;9.730;2023-05-28T09:20:15;26.70;71.80
47482;DHT22;33219;47.410;9.730;2023-05-28T09:22:40;26.20;72.70
47482;DHT22;33219;47.410;9.730;2023-05-28T09:25:08;26.20;72.30
47482;DHT22;33219;47.410;9.730;2023-05-28T09:27:36;26.30;73.30
47482;DHT22;33219;47.410;9.730;2023-05-28T09:30:09;26.20;73.70
47482;DHT22;33219;47.410;9.730;2023-05-28T09:32:36;26.30;72.60
47482;DHT22;33219;47.410;9.730;2023-05-28T09:35:07;26.70;74.60
47482;DHT22;33219;47.410;9.730;2023-05-28T09:37:34;26.50;71.10
47482;DHT22;33219;47.410;9.730;2023-05-28T09:40:07;26.90;72.60
47482;DHT22;33219;47.410;9.730;2023-05-28T09:42:42;26.80;72.50
47482;DHT22;33219;47.410;9.730;2023-05-28T09:45:10;27.00;70.00
47482;DHT22;33219;47.410;9.730;2023-05-28T09:47:44;27.00;72.20
47482;DHT22;33219;47.410;9.730;2023-05-28T09:50:13;27.10;70.90
47482;DHT22;33219;47.410;9.730;2023-05-28T09:52:43;27.30;73.00
47482;DHT22;33219;47.410;9.730;2023-05-28T09:55:16;27.40;70.70
47482;DHT22;33219;47.410;9.730;2023-05-28T10:00:25;26.50;71.30
47482;DHT22;33219;47.410;9.730;2023-05-28T10:05:40;25.80;72.90
47482;DHT22;33219;47.410;9.730;2023-05-28T10:08:13;25.30;74.70
47482;DHT22;33219;47.410;9.730;2023-05-28T10:10:41;25.30;75.60
47482;DHT22;33219;47.410;9.730;2023-05-28T10:13:10;25.10;74.50
47482;DHT22;33219;47.410;9.730;2023-05-28T10:15:39;25.10;77.20
47482;DHT22;33219;47.410;9.730;2023-05-28T10:18:07;25.20;74.20
47482;DHT22;33219;47.410;9.730;2023-05-28T10:20:35;25.20;75.70
47482;DHT22;33219;47.410;9.730;2023-05-28T10:23:03;25.10;76.60
47482;DHT22;33219;47.410;9.730;2023-05-28T10:25:32;25.30;77.20
47482;DHT22;33219;47.410;9.730;2023-05-28T10:28:00;25.50;76.20
47482;DHT22;33219;47.410;9.730;2023-05-28T10:30:35;25.40;74.70
47482;DHT22;33219;47.410;9.730;2023-05-28T10:33:19;25.30;75.50
47482;DHT22;33219;47.410;9.730;2023-05-28T10:35:55;25.20;74.60
47482;DHT22;33219;47.410;9.730;2023-05-28T10:38:23;25.20;76.60
47482;DHT22;33219;47.410;9.730;2023-05-28T10:40:52;25.10;76.10
47482;DHT22;33219;47.410;9.730;2023-05-28T10:43:41;25.00;76.60
47482;DHT22;33219;47.410;9.730;2023-05-28T10:46:20;24.80;76.20
47482;DHT22;33219;47.410;9.730;2023-05-28T10:49:05;24.90;76.70
47482;DHT22;33219;47.410;9.730;2023-05-28T10:57:17;24.80;76.80
47482;DHT22;33219;47.410;9.730;2023-05-28T10:59:50;25.10;78.50
47482;DHT22;33219;47.410;9.730;2023-05-28T11:02:23;25.20;78.20
47482;DHT22;33219;47.410;9.730;2023-05-28T11:04:57;25.20;78.40
47482;DHT22;33219;47.410;9.730;2023-05-28T11:07:37;25.10;77.80
47482;DHT22;33219;47.410;9.730;2023-05-28T11:10:07;25.30;80.30
47482;DHT22;33219;47.410;9.730;2023-05-28T11:12:39;25.40;79.70
47482;DHT22;33219;47.410;9.730;2023-05-28T11:15:08;25.50;77.40
47482;DHT22;33219;47.410;9.730;2023-05-28T11:17:37;25.80;77.50
47482;DHT22;33219;47.410;9.730;2023-05-28T11:20:15;26.00;76.40
47482;DHT22;33219;47.410;9.730;2023-05-28T11:22:36;26.00;75.80
47482;DHT22;33219;47.410;9.730;2023-05-28T11:25:08;25.80;76.60
47482;DHT22;33219;47.410;9.730;2023-05-28T11:27:37;25.30;76.50
47482;DHT22;33219;47.410;9.730;2023-05-28T11:30:09;25.40;78.70
47482;DHT22;33219;47.410;9.730;2023-05-28T11:32:42;25.30;77.00
47482;DHT22;33219;47.410;9.730;2023-05-28T11:35:11;25.40;81.00
47482;DHT22;33219;47.410;9.730;2023-05-28T11:37:40;25.60;76.80
47482;DHT22;33219;47.410;9.730;2023-05-28T11:40:10;25.70;78.20
47482;DHT22;33219;47.410;9.730;2023-05-28T11:42:41;25.60;77.90
47482;DHT22;33219;47.410;9.730;2023-05-28T11:45:10;25.30;76.10
47482;DHT22;33219;47.410;9.730;2023-05-28T11:47:38;25.00;77.00
47482;DHT22;33219;47.410;9.730;2023-05-28T11:50:14;25.00;78.80
47482;DHT22;33219;47.410;9.730;2023-05-28T11:52:43;24.90;77.30
47482;DHT22;33219;47.410;9.730;2023-05-28T11:55:11;24.90;78.10
47482;DHT22;33219;47.410;9.730;2023-05-28T11:57:49;24.70;79.10
47482;DHT22;33219;47.410;9.730;2023-05-28T12:00:11;24.80;78.90
47482;DHT22;33219;47.410;9.730;2023-05-28T12:02:51;24.90;79.60
47482;DHT22;33219;47.410;9.730;2023-05-28T12:05:20;24.80;77.60
47482;DHT22;33219;47.410;9.730;2023-05-28T12:07:50;25.10;77.30
47482;DHT22;33219;47.410;9.730;2023-05-28T12:10:20;25.00;76.60
47482;DHT22;33219;47.410;9.730;2023-05-28T12:12:49;24.90;77.60
47482;DHT22;33219;47.410;9.730;2023-05-28T12:15:17;25.30;79.20
47482;DHT22;33219;47.410;9.730;2023-05-28T12:17:50;25.40;76.20
47482;DHT22;33219;47.410;9.730;2023-05-28T12:22:46;25.90;77.10
47482;DHT22;33219;47.410;9.730;2023-05-28T12:25:14;26.20;79.40
47482;DHT22;33219;47.410;9.730;2023-05-28T12:27:41;26.30;75.80
47482;DHT22;33219;47.410;9.730;2023-05-28T12:30:09;26.40;75.50
47482;DHT22;33219;47.410;9.730;2023-05-28T12:32:36;26.40;75.90
47482;DHT22;33219;47.410;9.730;2023-05-28T12:35:04;26.40;77.30
47482;DHT22;33219;47.410;9.730;2023-05-28T12:37:32;26.40;77.00
47482;DHT22;33219;47.410;9.730;2023-05-28T12:40:00;26.50;75.00
47482;DHT22;33219;47.410;9.730;2023-05-28T12:42:27;26.80;75.40
47482;DHT22;33219;47.410;9.730;2023-05-28T12:44:55;26.90;73.70
47482;DHT22;33219;47.410;9.730;2023-05-28T12:47:23;26.90;74.00
47482;DHT22;33219;47.410;9.730;2023-05-28T12:49:50;26.40;75.20
47482;DHT22;33219;47.410;9.730;2023-05-28T12:52:19;26.10;73.80
47482;DHT22;33219;47.410;9.730;2023-05-28T12:54:47;25.90;74.20
47482;DHT22;33219;47.410;9.730;2023-05-28T12:57:14;25.80;74.80
47482;DHT22;33219;47.410;9.730;2023-05-28T12:59:42;26.10;73.80
47482;DHT22;33219;47.410;9.730;2023-05-28T13:02:10;25.90;74.40
47482;DHT22;33219;47.410;9.730;2023-05-28T13:04:37;26.20;75.70
47482;DHT22;33219;47.410;9.730;2023-05-28T13:07:05;26.20;72.80
47482;DHT22;33219;47.410;9.730;2023-05-28T13:09:34;26.00;75.40
47482;DHT22;33219;47.410;9.730;2023-05-28T13:12:02;25.90;75.10
47482;DHT22;33219;47.410;9.730;2023-05-28T13:14:30;25.70;73.40
47482;DHT22;33219;47.410;9.730;2023-05-28T13:17:00;25.60;75.00
47482;DHT22;33219;47.410;9.730;2023-05-28T13:19:28;25.50;73.80
47482;DHT22;33219;47.410;9.730;2023-05-28T13:21:57;25.60;75.90
47482;DHT22;33219;47.410;9.730;2023-05-28T13:24:26;25.60;74.40
47482;DHT22;33219;47.410;9.730;2023-05-28T13:26:53;25.70;74.90
47482;DHT22;33219;47.410;9.730;2023-05-28T13:29:21;25.90;74.00
47482;DHT22;33219;47.410;9.730;2023-05-28T13:31:48;25.80;75.50
47482;DHT22;33219;47.410;9.730;2023-05-28T13:34:16;25.90;75.60
47482;DHT22;33219;47.410;9.730;2023-05-28T13:36:43;26.00;74.90
47482;DHT22;33219;47.410;9.730;2023-05-28T13:39:11;26.00;75.00
47482;DHT22;33219;47.410;9.730;2023-05-28T13:41:39;26.20;72.90
47482;DHT22;33219;47.410;9.730;2023-05-28T13:44:07;26.10;72.60
47482;DHT22;33219;47.410;9.730;2023-05-28T13:46:35;26.10;72.10
47482;DHT22;33219;47.410;9.730;2023-05-28T13:49:04;25.80;72.40
47482;DHT22;33219;47.410;9.730;2023-05-28T13:51:32;25.60;72.60
47482;DHT22;33219;47.410;9.730;2023-05-28T13:54:00;25.60;72.20
47482;DHT22;33219;47.410;9.730;2023-05-28T13:56:27;25.60;73.30
47482;DHT22;33219;47.410;9.730;2023-05-28T13:58:55;25.40;74.20
47482;DHT22;33219;47.410;9.730;2023-05-28T14:01:23;25.50;73.10
47482;DHT22;33219;47.410;9.730;2023-05-28T14:03:50;25.70;74.30
47482;DHT22;33219;47.410;9.730;2023-05-28T14:06:18;25.80;75.20
47482;DHT22;33219;47.410;9.730;2023-05-28T14:08:45;25.70;77.50
47482;DHT22;33219;47.410;9.730;2023-05-28T14:11:13;25.50;78.80
47482;DHT22;33219;47.410;9.730;2023-05-28T14:13:40;25.40;78.50
47482;DHT22;33219;47.410;9.730;2023-05-28T14:16:08;25.40;75.40
47482;DHT22;33219;47.410;9.730;2023-05-28T14:18:35;25.40;73.90
47482;DHT22;33219;47.410;9.730;2023-05-28T14:21:03;25.40;78.10
47482;DHT22;33219;47.410;9.730;2023-05-28T14:23:33;25.40;75.40
47482;DHT22;33219;47.410;9.730;2023-05-28T14:26:00;25.30;76.40
47482;DHT22;33219;47.410;9.730;2023-05-28T14:28:28;25.40;74.50
47482;DHT22;33219;47.410;9.730;2023-05-28T14:30:57;25.30;78.50
47482;DHT22;33219;47.410;9.730;2023-05-28T14:33:24;25.40;77.70
47482;DHT22;33219;47.410;9.730;2023-05-28T14:35:54;25.30;73.10
47482;DHT22;33219;47.410;9.730;2023-05-28T14:38:22;25.20;72.80
47482;DHT22;33219;47.410;9.730;2023-05-28T14:40:50;25.10;72.50
47482;DHT22;33219;47.410;9.730;2023-05-28T14:43:17;25.10;73.40
47482;DHT22;33219;47.410;9.730;2023-05-28T14:45:45;25.10;75.40
47482;DHT22;33219;47.410;9.730;2023-05-28T14:48:12;25.20;75.60
47482;DHT22;33219;47.410;9.730;2023-05-28T14:50:40;25.30;77.90
47482;DHT22;33219;47.410;9.730;2023-05-28T14:53:07;25.30;75.80
47482;DHT22;33219;47.410;9.730;2023-05-28T14:55:36;25.30;74.40
47482;DHT22;33219;47.410;9.730;2023-05-28T14:58:03;25.40;76.30
47482;DHT22;33219;47.410;9.730;2023-05-28T15:00:31;25.60;75.70
47482;DHT22;33219;47.410;9.730;2023-05-28T15:02:59;25.80;73.50
47482;DHT22;33219;47.410;9.730;2023-05-28T15:05:26;26.00;72.30
47482;DHT22;33219;47.410;9.730;2023-05-28T15:07:54;26.20;73.00
47482;DHT22;33219;47.410;9.730;2023-05-28T15:10:22;26.30;71.20
47482;DHT22;33219;47.410;9.730;2023-05-28T15:12:49;26.40;72.50
47482;DHT22;33219;47.410;9.730;2023-05-28T15:15:17;26.20;70.10
47482;DHT22;33219;47.410;9.730;2023-05-28T15:17:46;26.10;72.50
47482;DHT22;33219;47.410;9.730;2023-05-28T15:20:14;26.00;71.70
47482;DHT22;33219;47.410;9.730;2023-05-28T15:22:42;25.80;70.10
47482;DHT22;33219;47.410;9.730;2023-05-28T15:25:09;25.80;71.80
47482;DHT22;33219;47.410;9.730;2023-05-28T15:27:37;25.80;74.60
47482;DHT22;33219;47.410;9.730;2023-05-28T15:30:06;25.70;72.90
47482;DHT22;33219;47.410;9.730;2023-05-28T15:32:35;25.70;72.60
47482;DHT22;33219;47.410;9.730;2023-05-28T15:35:04;25.60;69.80
47482;DHT22;33219;47.410;9.730;2023-05-28T15:37:32;25.40;74.00
47482;DHT22;33219;47.410;9.730;2023-05-28T15:40:00;25.10;73.20
47482;DHT22;33219;47.410;9.730;2023-05-28T15:42:29;25.00;71.90
47482;DHT22;33219;47.410;9.730;2023-05-28T15:44:57;24.80;74.00
47482;DHT22;33219;47.410;9.730;2023-05-28T15:47:24;24.70;73.10
47482;DHT22;33219;47.410;9.730;2023-05-28T15:49:52;24.60;71.60
47482;DHT22;33219;47.410;9.730;2023-05-28T15:52:20;24.70;69.50